sensor_id;sensor_type;location;lat;lon;timestamp;P1;durP1;ratioP1;P2;durP2;ratioP2
7025;SDS011;3554;42.132;24.786;2023-02-11T00:00:26;31.83;;;18.20;;
7025;SDS011;3554;42.132;24.786;2023-02-11T00:02:53;31.43;;;17.13;;
7025;SDS011;3554;42.132;24.786;2023-02-11T00:05:20;30.87;;;18.53;;
7025;SDS011;3554;42.132;24.786;2023-02-11T00:07:46;31.17;;;18.33;;
7025;SDS011;3554;42.132;24.786;2023-02-11T00:10:13;39.33;;;19.00;;
7025;SDS011;3554;42.132;24.786;2023-02-11T00:12:40;29.47;;;19.03;;
7025;SDS011;3554;42.132;24.786;2023-02-11T00:15:09;35.53;;;19.27;;
7025;SDS011;3554;42.132;24.786;2023-02-11T00:17:36;34.20;;;19.20;;
7025;SDS011;3554;42.132;24.786;2023-02-11T00:20:03;34.73;;;19.67;;
7025;SDS011;3554;42.132;24.786;2023-02-11T00:22:30;36.00;;;19.83;;
7025;SDS011;3554;42.132;24.786;2023-02-11T00:24:57;34.73;;;18.90;;
7025;SDS011;3554;42.132;24.786;2023-02-11T00:27:24;41.70;;;22.07;;
7025;SDS011;3554;42.132;24.786;2023-02-11T00:29:51;38.53;;;21.10;;
7025;SDS011;3554;42.132;24.786;2023-02-11T00:32:19;36.77;;;21.07;;
7025;SDS011;3554;42.132;24.786;2023-02-11T00:34:45;42.63;;;21.27;;
7025;SDS011;3554;42.132;24.786;2023-02-11T00:37:12;38.53;;;22.77;;
7025;SDS011;3554;42.132;24.786;2023-02-11T00:39:39;44.53;;;22.17;;
7025;SDS011;3554;42.132;24.786;2023-02-11T00:42:06;40.80;;;21.07;;
7025;SDS011;3554;42.132;24.786;2023-02-11T00:44:32;45.60;;;22.13;;
7025;SDS011;3554;42.132;24.786;2023-02-11T00:46:59;43.40;;;22.20;;
7025;SDS011;3554;42.132;24.786;2023-02-11T00:49:27;37.43;;;20.37;;
7025;SDS011;3554;42.132;24.786;2023-02-11T00:51:54;40.70;;;22.30;;
7025;SDS011;3554;42.132;24.786;2023-02-11T00:54:21;45.50;;;22.53;;
7025;SDS011;3554;42.132;24.786;2023-02-11T00:56:47;41.60;;;22.80;;
7025;SDS011;3554;42.132;24.786;2023-02-11T00:59:14;37.03;;;21.17;;
7025;SDS011;3554;42.132;24.786;2023-02-11T01:01:41;38.87;;;20.03;;
7025;SDS011;3554;42.132;24.786;2023-02-11T01:04:08;37.30;;;21.93;;
7025;SDS011;3554;42.132;24.786;2023-02-11T01:06:36;32.10;;;18.77;;
7025;SDS011;3554;42.132;24.786;2023-02-11T01:09:03;36.10;;;20.20;;
7025;SDS011;3554;42.132;24.786;2023-02-11T01:11:29;38.47;;;20.80;;
7025;SDS011;3554;42.132;24.786;2023-02-11T01:13:56;44.07;;;19.77;;
7025;SDS011;3554;42.132;24.786;2023-02-11T01:16:23;35.87;;;20.20;;
7025;SDS011;3554;42.132;24.786;2023-02-11T01:18:50;38.20;;;20.43;;
7025;SDS011;3554;42.132;24.786;2023-02-11T01:21:16;38.63;;;20.87;;
7025;SDS011;3554;42.132;24.786;2023-02-11T01:23:45;33.67;;;19.67;;
7025;SDS011;3554;42.132;24.786;2023-02-11T01:26:12;32.63;;;20.10;;
7025;SDS011;3554;42.132;24.786;2023-02-11T01:28:39;35.83;;;19.77;;
7025;SDS011;3554;42.132;24.786;2023-02-11T01:31:06;30.47;;;18.30;;
7025;SDS011;3554;42.132;24.786;2023-02-11T01:33:32;33.63;;;18.90;;
7025;SDS011;3554;42.132;24.786;2023-02-11T01:35:59;38.97;;;21.77;;
7025;SDS011;3554;42.132;24.786;2023-02-11T01:38:27;36.47;;;21.33;;
7025;SDS011;3554;42.132;24.786;2023-02-11T01:40:57;33.57;;;19.70;;
7025;SDS011;3554;42.132;24.786;2023-02-11T01:43:26;37.67;;;21.13;;
7025;SDS011;3554;42.132;24.786;2023-02-11T01:46:00;35.50;;;20.63;;
7025;SDS011;3554;42.132;24.786;2023-02-11T01:48:33;41.10;;;19.73;;
7025;SDS011;3554;42.132;24.786;2023-02-11T01:51:05;42.63;;;20.60;;
7025;SDS011;3554;42.132;24.786;2023-02-11T01:53:35;38.67;;;21.30;;
7025;SDS011;3554;42.132;24.786;2023-02-11T01:56:22;38.10;;;19.63;;
7025;SDS011;3554;42.132;24.786;2023-02-11T01:59:09;38.37;;;20.03;;
7025;SDS011;3554;42.132;24.786;2023-02-11T02:01:48;36.63;;;20.60;;
7025;SDS011;3554;42.132;24.786;2023-02-11T02:04:18;30.30;;;18.97;;
7025;SDS011;3554;42.132;24.786;2023-02-11T02:06:52;31.60;;;19.97;;
7025;SDS011;3554;42.132;24.786;2023-02-11T02:09:24;32.53;;;19.67;;
7025;SDS011;3554;42.132;24.786;2023-02-11T02:11:54;36.60;;;20.07;;
7025;SDS011;3554;42.132;24.786;2023-02-11T02:14:21;28.90;;;19.20;;
7025;SDS011;3554;42.132;24.786;2023-02-11T02:16:48;36.57;;;19.83;;
7025;SDS011;3554;42.132;24.786;2023-02-11T02:19:24;30.70;;;18.27;;
7025;SDS011;3554;42.132;24.786;2023-02-11T02:25:34;31.13;;;18.37;;
7025;SDS011;3554;42.132;24.786;2023-02-11T02:28:29;32.40;;;18.20;;
7025;SDS011;3554;42.132;24.786;2023-02-11T02:34:06;28.17;;;18.13;;
7025;SDS011;3554;42.132;24.786;2023-02-11T02:36:39;24.60;;;16.10;;
7025;SDS011;3554;42.132;24.786;2023-02-11T02:39:13;29.17;;;16.63;;
7025;SDS011;3554;42.132;24.786;2023-02-11T02:41:46;37.43;;;20.50;;
7025;SDS011;3554;42.132;24.786;2023-02-11T02:44:16;47.17;;;21.83;;
7025;SDS011;3554;42.132;24.786;2023-02-11T02:46:44;40.20;;;22.07;;
7025;SDS011;3554;42.132;24.786;2023-02-11T02:49:13;41.63;;;22.20;;
7025;SDS011;3554;42.132;24.786;2023-02-11T02:51:43;37.50;;;21.03;;
7025;SDS011;3554;42.132;24.786;2023-02-11T02:54:35;42.53;;;22.77;;
7025;SDS011;3554;42.132;24.786;2023-02-11T02:57:19;42.97;;;22.63;;
7025;SDS011;3554;42.132;24.786;2023-02-11T03:00:00;34.47;;;22.10;;
7025;SDS011;3554;42.132;24.786;2023-02-11T03:02:39;40.10;;;23.83;;
7025;SDS011;3554;42.132;24.786;2023-02-11T03:05:15;37.40;;;22.63;;
7025;SDS011;3554;42.132;24.786;2023-02-11T03:07:49;47.87;;;24.13;;
7025;SDS011;3554;42.132;24.786;2023-02-11T03:10:21;47.20;;;23.97;;
7025;SDS011;3554;42.132;24.786;2023-02-11T03:12:52;43.03;;;23.40;;
7025;SDS011;3554;42.132;24.786;2023-02-11T03:15:21;38.90;;;22.93;;
7025;SDS011;3554;42.132;24.786;2023-02-11T03:17:50;44.10;;;23.73;;
7025;SDS011;3554;42.132;24.786;2023-02-11T03:20:22;45.80;;;23.73;;
7025;SDS011;3554;42.132;24.786;2023-02-11T03:22:49;43.47;;;23.77;;
7025;SDS011;3554;42.132;24.786;2023-02-11T03:25:21;50.80;;;22.40;;
7025;SDS011;3554;42.132;24.786;2023-02-11T03:27:55;49.23;;;24.13;;
7025;SDS011;3554;42.132;24.786;2023-02-11T03:30:27;44.30;;;23.83;;
7025;SDS011;3554;42.132;24.786;2023-02-11T03:33:00;43.30;;;24.40;;
7025;SDS011;3554;42.132;24.786;2023-02-11T03:35:34;40.93;;;22.67;;
7025;SDS011;3554;42.132;24.786;2023-02-11T03:38:07;46.67;;;24.70;;
7025;SDS011;3554;42.132;24.786;2023-02-11T03:40:39;42.90;;;23.67;;
7025;SDS011;3554;42.132;24.786;2023-02-11T03:43:11;39.87;;;22.77;;
7025;SDS011;3554;42.132;24.786;2023-02-11T03:45:42;47.17;;;24.47;;
7025;SDS011;3554;42.132;24.786;2023-02-11T03:48:13;40.80;;;22.93;;
7025;SDS011;3554;42.132;24.786;2023-02-11T03:50:44;43.73;;;23.93;;
7025;SDS011;3554;42.132;24.786;2023-02-11T03:53:12;44.37;;;23.73;;
7025;SDS011;3554;42.132;24.786;2023-02-11T03:55:40;37.83;;;23.90;;
7025;SDS011;3554;42.132;24.786;2023-02-11T03:58:09;43.00;;;23.20;;
7025;SDS011;3554;42.132;24.786;2023-02-11T04:00:37;55.60;;;23.30;;
7025;SDS011;3554;42.132;24.786;2023-02-11T04:03:05;45.90;;;23.00;;
7025;SDS011;3554;42.132;24.786;2023-02-11T04:05:32;38.10;;;23.07;;
7025;SDS011;3554;42.132;24.786;2023-02-11T04:08:01;44.47;;;24.43;;
7025;SDS011;3554;42.132;24.786;2023-02-11T04:10:27;41.20;;;22.63;;
7025;SDS011;3554;42.132;24.786;2023-02-11T04:12:55;47.33;;;23.53;;
7025;SDS011;3554;42.132;24.786;2023-02-11T04:15:22;37.50;;;23.57;;
7025;SDS011;3554;42.132;24.786;2023-02-11T04:17:49;49.63;;;23.83;;
7025;SDS011;3554;42.132;24.786;2023-02-11T04:20:16;48.10;;;23.53;;
7025;SDS011;3554;42.132;24.786;2023-02-11T04:22:42;54.80;;;25.90;;
7025;SDS011;3554;42.132;24.786;2023-02-11T04:25:11;44.93;;;23.53;;
7025;SDS011;3554;42.132;24.786;2023-02-11T04:27:37;47.50;;;23.93;;
7025;SDS011;3554;42.132;24.786;2023-02-11T04:30:04;41.07;;;22.23;;
7025;SDS011;3554;42.132;24.786;2023-02-11T04:32:32;44.40;;;24.20;;
7025;SDS011;3554;42.132;24.786;2023-02-11T04:34:59;49.33;;;25.87;;
7025;SDS011;3554;42.132;24.786;2023-02-11T04:37:26;49.17;;;24.80;;
7025;SDS011;3554;42.132;24.786;2023-02-11T04:39:53;39.80;;;22.17;;
7025;SDS011;3554;42.132;24.786;2023-02-11T04:42:21;39.80;;;22.90;;
7025;SDS011;3554;42.132;24.786;2023-02-11T04:44:48;45.40;;;23.17;;
7025;SDS011;3554;42.132;24.786;2023-02-11T04:47:15;41.43;;;23.73;;
7025;SDS011;3554;42.132;24.786;2023-02-11T04:49:42;41.47;;;22.50;;
7025;SDS011;3554;42.132;24.786;2023-02-11T04:52:09;47.53;;;24.27;;
7025;SDS011;3554;42.132;24.786;2023-02-11T04:54:36;48.60;;;23.53;;
7025;SDS011;3554;42.132;24.786;2023-02-11T04:57:03;51.97;;;24.00;;
7025;SDS011;3554;42.132;24.786;2023-02-11T04:59:31;51.87;;;24.47;;
7025;SDS011;3554;42.132;24.786;2023-02-11T05:01:58;43.97;;;23.53;;
7025;SDS011;3554;42.132;24.786;2023-02-11T05:04:25;39.63;;;24.07;;
7025;SDS011;3554;42.132;24.786;2023-02-11T05:06:51;47.03;;;24.93;;
7025;SDS011;3554;42.132;24.786;2023-02-11T05:09:18;41.47;;;25.27;;
7025;SDS011;3554;42.132;24.786;2023-02-11T05:11:45;45.53;;;24.73;;
7025;SDS011;3554;42.132;24.786;2023-02-11T05:14:12;39.23;;;23.10;;
7025;SDS011;3554;42.132;24.786;2023-02-11T05:16:40;42.50;;;22.47;;
7025;SDS011;3554;42.132;24.786;2023-02-11T05:19:07;40.57;;;23.93;;
7025;SDS011;3554;42.132;24.786;2023-02-11T05:21:33;39.57;;;23.17;;
7025;SDS011;3554;42.132;24.786;2023-02-11T05:24:00;46.07;;;23.67;;
7025;SDS011;3554;42.132;24.786;2023-02-11T05:26:27;48.03;;;24.87;;
7025;SDS011;3554;42.132;24.786;2023-02-11T05:28:54;45.13;;;24.07;;
7025;SDS011;3554;42.132;24.786;2023-02-11T05:31:21;40.27;;;23.57;;
7025;SDS011;3554;42.132;24.786;2023-02-11T05:33:49;43.13;;;23.17;;
7025;SDS011;3554;42.132;24.786;2023-02-11T05:36:16;48.53;;;24.97;;
7025;SDS011;3554;42.132;24.786;2023-02-11T05:38:42;39.17;;;22.10;;
7025;SDS011;3554;42.132;24.786;2023-02-11T05:41:11;41.03;;;23.23;;
7025;SDS011;3554;42.132;24.786;2023-02-11T05:43:38;40.07;;;22.10;;
7025;SDS011;3554;42.132;24.786;2023-02-11T05:46:05;42.60;;;22.63;;
7025;SDS011;3554;42.132;24.786;2023-02-11T05:48:32;42.00;;;21.80;;
7025;SDS011;3554;42.132;24.786;2023-02-11T05:51:00;36.33;;;21.20;;
7025;SDS011;3554;42.132;24.786;2023-02-11T05:53:27;43.80;;;22.13;;
7025;SDS011;3554;42.132;24.786;2023-02-11T05:55:53;42.53;;;23.40;;
7025;SDS011;3554;42.132;24.786;2023-02-11T05:58:20;31.87;;;21.40;;
7025;SDS011;3554;42.132;24.786;2023-02-11T06:00:47;42.30;;;23.97;;
7025;SDS011;3554;42.132;24.786;2023-02-11T06:03:14;44.37;;;22.50;;
7025;SDS011;3554;42.132;24.786;2023-02-11T06:05:41;43.77;;;22.73;;
7025;SDS011;3554;42.132;24.786;2023-02-11T06:08:09;41.77;;;23.13;;
7025;SDS011;3554;42.132;24.786;2023-02-11T06:10:36;43.63;;;23.07;;
7025;SDS011;3554;42.132;24.786;2023-02-11T06:13:03;40.23;;;23.07;;
7025;SDS011;3554;42.132;24.786;2023-02-11T06:15:30;40.27;;;23.23;;
7025;SDS011;3554;42.132;24.786;2023-02-11T06:17:57;41.17;;;22.93;;
7025;SDS011;3554;42.132;24.786;2023-02-11T06:20:23;35.97;;;18.90;;
7025;SDS011;3554;42.132;24.786;2023-02-11T06:22:50;45.07;;;24.40;;
7025;SDS011;3554;42.132;24.786;2023-02-11T06:25:19;48.20;;;25.93;;
7025;SDS011;3554;42.132;24.786;2023-02-11T06:27:45;42.03;;;25.30;;
7025;SDS011;3554;42.132;24.786;2023-02-11T06:30:13;53.30;;;26.90;;
7025;SDS011;3554;42.132;24.786;2023-02-11T06:32:40;47.30;;;25.50;;
7025;SDS011;3554;42.132;24.786;2023-02-11T06:35:07;40.10;;;24.37;;
7025;SDS011;3554;42.132;24.786;2023-02-11T06:37:34;43.53;;;24.93;;
7025;SDS011;3554;42.132;24.786;2023-02-11T06:40:00;47.03;;;25.57;;
7025;SDS011;3554;42.132;24.786;2023-02-11T06:42:29;46.63;;;24.17;;
7025;SDS011;3554;42.132;24.786;2023-02-11T06:44:55;33.43;;;19.67;;
7025;SDS011;3554;42.132;24.786;2023-02-11T06:47:22;31.07;;;18.53;;
7025;SDS011;3554;42.132;24.786;2023-02-11T06:49:49;36.97;;;21.00;;
7025;SDS011;3554;42.132;24.786;2023-02-11T06:52:15;33.77;;;21.00;;
7025;SDS011;3554;42.132;24.786;2023-02-11T06:54:42;36.70;;;21.03;;
7025;SDS011;3554;42.132;24.786;2023-02-11T06:57:09;32.07;;;20.40;;
7025;SDS011;3554;42.132;24.786;2023-02-11T06:59:37;28.87;;;18.30;;
7025;SDS011;3554;42.132;24.786;2023-02-11T07:02:04;30.70;;;18.67;;
7025;SDS011;3554;42.132;24.786;2023-02-11T07:04:31;35.17;;;18.90;;
7025;SDS011;3554;42.132;24.786;2023-02-11T07:06:58;28.50;;;19.10;;
7025;SDS011;3554;42.132;24.786;2023-02-11T07:09:25;35.77;;;19.47;;
7025;SDS011;3554;42.132;24.786;2023-02-11T07:11:52;31.87;;;20.73;;
7025;SDS011;3554;42.132;24.786;2023-02-11T07:14:18;35.33;;;18.93;;
7025;SDS011;3554;42.132;24.786;2023-02-11T07:16:46;29.87;;;16.63;;
7025;SDS011;3554;42.132;24.786;2023-02-11T07:19:13;25.67;;;15.97;;
7025;SDS011;3554;42.132;24.786;2023-02-11T07:21:40;29.97;;;18.00;;
7025;SDS011;3554;42.132;24.786;2023-02-11T07:24:07;26.83;;;17.77;;
7025;SDS011;3554;42.132;24.786;2023-02-11T07:26:34;34.50;;;17.73;;
7025;SDS011;3554;42.132;24.786;2023-02-11T07:29:02;24.80;;;15.47;;
7025;SDS011;3554;42.132;24.786;2023-02-11T07:31:29;32.33;;;15.80;;
7025;SDS011;3554;42.132;24.786;2023-02-11T07:33:58;36.13;;;17.23;;
7025;SDS011;3554;42.132;24.786;2023-02-11T07:36:25;32.53;;;16.90;;
7025;SDS011;3554;42.132;24.786;2023-02-11T07:38:53;22.97;;;15.23;;
7025;SDS011;3554;42.132;24.786;2023-02-11T07:41:20;26.20;;;15.93;;
7025;SDS011;3554;42.132;24.786;2023-02-11T07:43:49;24.70;;;14.67;;
7025;SDS011;3554;42.132;24.786;2023-02-11T07:46:17;24.80;;;15.63;;
7025;SDS011;3554;42.132;24.786;2023-02-11T07:48:46;19.90;;;14.37;;
7025;SDS011;3554;42.132;24.786;2023-02-11T07:51:15;20.27;;;14.10;;
7025;SDS011;3554;42.132;24.786;2023-02-11T07:53:43;24.10;;;15.23;;
7025;SDS011;3554;42.132;24.786;2023-02-11T07:56:11;23.90;;;15.23;;
7025;SDS011;3554;42.132;24.786;2023-02-11T07:58:38;19.30;;;14.23;;
7025;SDS011;3554;42.132;24.786;2023-02-11T08:01:08;26.07;;;13.53;;
7025;SDS011;3554;42.132;24.786;2023-02-11T08:03:36;21.37;;;13.20;;
7025;SDS011;3554;42.132;24.786;2023-02-11T08:06:04;21.43;;;14.17;;
7025;SDS011;3554;42.132;24.786;2023-02-11T08:08:33;18.80;;;13.67;;
7025;SDS011;3554;42.132;24.786;2023-02-11T08:11:04;15.40;;;13.77;;
7025;SDS011;3554;42.132;24.786;2023-02-11T08:13:32;19.73;;;12.70;;
7025;SDS011;3554;42.132;24.786;2023-02-11T08:15:59;15.73;;;12.57;;
7025;SDS011;3554;42.132;24.786;2023-02-11T08:18:26;26.77;;;13.67;;
7025;SDS011;3554;42.132;24.786;2023-02-11T08:20:52;26.20;;;13.90;;
7025;SDS011;3554;42.132;24.786;2023-02-11T08:23:19;23.83;;;14.97;;
7025;SDS011;3554;42.132;24.786;2023-02-11T08:25:47;18.03;;;13.23;;
7025;SDS011;3554;42.132;24.786;2023-02-11T08:28:14;17.27;;;12.93;;
7025;SDS011;3554;42.132;24.786;2023-02-11T08:30:41;20.57;;;13.63;;
7025;SDS011;3554;42.132;24.786;2023-02-11T08:33:08;21.33;;;14.03;;
7025;SDS011;3554;42.132;24.786;2023-02-11T08:35:34;22.03;;;14.23;;
7025;SDS011;3554;42.132;24.786;2023-02-11T08:38:03;18.07;;;13.03;;
7025;SDS011;3554;42.132;24.786;2023-02-11T08:40:30;31.77;;;15.03;;
7025;SDS011;3554;42.132;24.786;2023-02-11T08:42:58;15.13;;;10.50;;
7025;SDS011;3554;42.132;24.786;2023-02-11T08:45:25;20.07;;;13.27;;
7025;SDS011;3554;42.132;24.786;2023-02-11T08:47:52;24.10;;;12.63;;
7025;SDS011;3554;42.132;24.786;2023-02-11T08:50:19;12.07;;;10.77;;
7025;SDS011;3554;42.132;24.786;2023-02-11T08:52:46;23.53;;;14.23;;
7025;SDS011;3554;42.132;24.786;2023-02-11T08:55:12;19.83;;;13.43;;
7025;SDS011;3554;42.132;24.786;2023-02-11T08:57:39;21.63;;;13.50;;
7025;SDS011;3554;42.132;24.786;2023-02-11T09:00:08;16.17;;;12.10;;
7025;SDS011;3554;42.132;24.786;2023-02-11T09:02:36;19.97;;;14.30;;
7025;SDS011;3554;42.132;24.786;2023-02-11T09:05:04;20.97;;;13.73;;
7025;SDS011;3554;42.132;24.786;2023-02-11T09:07:31;24.90;;;13.60;;
7025;SDS011;3554;42.132;24.786;2023-02-11T09:09:58;27.40;;;13.93;;
7025;SDS011;3554;42.132;24.786;2023-02-11T09:12:24;21.97;;;14.57;;
7025;SDS011;3554;42.132;24.786;2023-02-11T09:14:51;18.90;;;13.70;;
7025;SDS011;3554;42.132;24.786;2023-02-11T09:17:19;17.13;;;13.13;;
7025;SDS011;3554;42.132;24.786;2023-02-11T09:19:46;21.63;;;15.47;;
7025;SDS011;3554;42.132;24.786;2023-02-11T09:22:13;25.53;;;15.77;;
7025;SDS011;3554;42.132;24.786;2023-02-11T09:24:39;15.87;;;12.97;;
7025;SDS011;3554;42.132;24.786;2023-02-11T09:27:06;23.77;;;13.30;;
7025;SDS011;3554;42.132;24.786;2023-02-11T09:29:33;16.63;;;12.43;;
7025;SDS011;3554;42.132;24.786;2023-02-11T09:32:00;21.27;;;14.20;;
7025;SDS011;3554;42.132;24.786;2023-02-11T09:34:28;19.57;;;12.40;;
7025;SDS011;3554;42.132;24.786;2023-02-11T09:36:55;18.03;;;11.70;;
7025;SDS011;3554;42.132;24.786;2023-02-11T09:39:22;15.80;;;10.17;;
7025;SDS011;3554;42.132;24.786;2023-02-11T09:44:43;14.87;;;11.63;;
7025;SDS011;3554;42.132;24.786;2023-02-11T09:47:16;16.33;;;11.80;;
7025;SDS011;3554;42.132;24.786;2023-02-11T09:49:52;18.30;;;8.57;;
7025;SDS011;3554;42.132;24.786;2023-02-11T09:52:24;19.93;;;12.07;;
7025;SDS011;3554;42.132;24.786;2023-02-11T09:54:58;15.03;;;11.33;;
7025;SDS011;3554;42.132;24.786;2023-02-11T09:57:28;16.10;;;11.10;;
7025;SDS011;3554;42.132;24.786;2023-02-11T09:59:58;37.43;;;13.50;;
7025;SDS011;3554;42.132;24.786;2023-02-11T10:02:28;18.10;;;12.07;;
7025;SDS011;3554;42.132;24.786;2023-02-11T10:05:25;17.67;;;12.47;;
7025;SDS011;3554;42.132;24.786;2023-02-11T10:08:04;16.87;;;10.47;;
7025;SDS011;3554;42.132;24.786;2023-02-11T10:10:43;27.17;;;12.20;;
7025;SDS011;3554;42.132;24.786;2023-02-11T10:13:25;17.83;;;11.60;;
7025;SDS011;3554;42.132;24.786;2023-02-11T10:16:03;13.30;;;11.40;;
7025;SDS011;3554;42.132;24.786;2023-02-11T10:18:52;19.13;;;12.30;;
7025;SDS011;3554;42.132;24.786;2023-02-11T10:21:35;16.20;;;12.93;;
7025;SDS011;3554;42.132;24.786;2023-02-11T10:24:11;18.53;;;12.50;;
7025;SDS011;3554;42.132;24.786;2023-02-11T10:26:40;17.00;;;11.90;;
7025;SDS011;3554;42.132;24.786;2023-02-11T10:29:11;30.83;;;13.03;;
7025;SDS011;3554;42.132;24.786;2023-02-11T10:31:44;14.30;;;9.67;;
7025;SDS011;3554;42.132;24.786;2023-02-11T10:34:12;16.37;;;12.07;;
7025;SDS011;3554;42.132;24.786;2023-02-11T10:36:42;16.27;;;11.77;;
7025;SDS011;3554;42.132;24.786;2023-02-11T10:39:11;14.60;;;11.73;;
7025;SDS011;3554;42.132;24.786;2023-02-11T10:41:40;32.40;;;12.87;;
7025;SDS011;3554;42.132;24.786;2023-02-11T10:44:12;18.60;;;12.30;;
7025;SDS011;3554;42.132;24.786;2023-02-11T10:46:48;20.40;;;12.80;;
7025;SDS011;3554;42.132;24.786;2023-02-11T10:52:13;15.10;;;11.57;;
7025;SDS011;3554;42.132;24.786;2023-02-11T10:54:54;18.07;;;11.47;;
7025;SDS011;3554;42.132;24.786;2023-02-11T10:57:22;18.00;;;11.17;;
7025;SDS011;3554;42.132;24.786;2023-02-11T10:59:55;17.03;;;11.83;;
7025;SDS011;3554;42.132;24.786;2023-02-11T11:02:26;10.17;;;8.40;;
7025;SDS011;3554;42.132;24.786;2023-02-11T11:04:56;16.03;;;11.00;;
7025;SDS011;3554;42.132;24.786;2023-02-11T11:07:26;14.77;;;11.57;;
7025;SDS011;3554;42.132;24.786;2023-02-11T11:09:56;13.07;;;10.37;;
7025;SDS011;3554;42.132;24.786;2023-02-11T11:12:28;12.17;;;10.50;;
7025;SDS011;3554;42.132;24.786;2023-02-11T11:14:57;17.33;;;10.60;;
7025;SDS011;3554;42.132;24.786;2023-02-11T11:17:26;16.07;;;11.23;;
7025;SDS011;3554;42.132;24.786;2023-02-11T11:19:55;14.60;;;11.67;;
7025;SDS011;3554;42.132;24.786;2023-02-11T11:22:39;13.50;;;10.57;;
7025;SDS011;3554;42.132;24.786;2023-02-11T11:25:18;13.27;;;9.70;;
7025;SDS011;3554;42.132;24.786;2023-02-11T11:27:47;19.57;;;10.40;;
7025;SDS011;3554;42.132;24.786;2023-02-11T11:30:15;15.43;;;10.13;;
7025;SDS011;3554;42.132;24.786;2023-02-11T11:32:42;13.80;;;10.73;;
7025;SDS011;3554;42.132;24.786;2023-02-11T11:35:19;11.73;;;10.47;;
7025;SDS011;3554;42.132;24.786;2023-02-11T11:37:52;15.83;;;10.50;;
7025;SDS011;3554;42.132;24.786;2023-02-11T11:40:21;14.67;;;10.70;;
7025;SDS011;3554;42.132;24.786;2023-02-11T11:43:00;13.57;;;10.77;;
7025;SDS011;3554;42.132;24.786;2023-02-11T11:45:50;22.07;;;12.83;;
7025;SDS011;3554;42.132;24.786;2023-02-11T11:48:20;12.07;;;9.23;;
7025;SDS011;3554;42.132;24.786;2023-02-11T11:50:51;13.47;;;10.70;;
7025;SDS011;3554;42.132;24.786;2023-02-11T11:53:23;10.53;;;9.03;;
7025;SDS011;3554;42.132;24.786;2023-02-11T11:55:56;12.27;;;9.30;;
7025;SDS011;3554;42.132;24.786;2023-02-11T11:58:28;12.60;;;7.93;;
7025;SDS011;3554;42.132;24.786;2023-02-11T12:00:58;14.97;;;10.83;;
7025;SDS011;3554;42.132;24.786;2023-02-11T12:03:45;9.70;;;8.30;;
7025;SDS011;3554;42.132;24.786;2023-02-11T12:06:37;9.70;;;8.73;;
7025;SDS011;3554;42.132;24.786;2023-02-11T12:09:12;14.83;;;9.43;;
7025;SDS011;3554;42.132;24.786;2023-02-11T12:12:01;10.77;;;9.17;;
7025;SDS011;3554;42.132;24.786;2023-02-11T12:14:40;10.43;;;8.70;;
7025;SDS011;3554;42.132;24.786;2023-02-11T12:17:17;11.60;;;8.73;;
7025;SDS011;3554;42.132;24.786;2023-02-11T12:19:57;11.33;;;8.57;;
7025;SDS011;3554;42.132;24.786;2023-02-11T12:22:45;11.67;;;8.37;;
7025;SDS011;3554;42.132;24.786;2023-02-11T12:25:25;10.23;;;8.90;;
7025;SDS011;3554;42.132;24.786;2023-02-11T12:28:02;9.37;;;8.43;;
7025;SDS011;3554;42.132;24.786;2023-02-11T12:30:48;9.33;;;6.60;;
7025;SDS011;3554;42.132;24.786;2023-02-11T12:33:30;8.67;;;7.27;;
7025;SDS011;3554;42.132;24.786;2023-02-11T12:36:33;10.47;;;8.73;;
7025;SDS011;3554;42.132;24.786;2023-02-11T12:39:14;9.27;;;8.23;;
7025;SDS011;3554;42.132;24.786;2023-02-11T12:41:54;13.10;;;8.23;;
7025;SDS011;3554;42.132;24.786;2023-02-11T12:44:57;12.80;;;8.50;;
7025;SDS011;3554;42.132;24.786;2023-02-11T12:47:35;4.87;;;4.30;;
7025;SDS011;3554;42.132;24.786;2023-02-11T12:50:13;12.23;;;7.50;;
7025;SDS011;3554;42.132;24.786;2023-02-11T12:53:07;11.80;;;9.10;;
7025;SDS011;3554;42.132;24.786;2023-02-11T12:55:47;9.57;;;8.07;;
7025;SDS011;3554;42.132;24.786;2023-02-11T12:58:20;9.83;;;7.77;;
7025;SDS011;3554;42.132;24.786;2023-02-11T13:00:51;9.37;;;7.07;;
7025;SDS011;3554;42.132;24.786;2023-02-11T13:03:21;10.33;;;8.43;;
7025;SDS011;3554;42.132;24.786;2023-02-11T13:05:51;8.07;;;7.23;;
7025;SDS011;3554;42.132;24.786;2023-02-11T13:08:25;10.07;;;8.30;;
7025;SDS011;3554;42.132;24.786;2023-02-11T13:10:56;10.13;;;7.47;;
7025;SDS011;3554;42.132;24.786;2023-02-11T13:13:29;9.87;;;7.53;;
7025;SDS011;3554;42.132;24.786;2023-02-11T13:16:01;10.30;;;7.80;;
7025;SDS011;3554;42.132;24.786;2023-02-11T13:18:38;10.47;;;8.37;;
7025;SDS011;3554;42.132;24.786;2023-02-11T13:21:25;9.87;;;8.13;;
7025;SDS011;3554;42.132;24.786;2023-02-11T13:24:00;9.37;;;8.37;;
7025;SDS011;3554;42.132;24.786;2023-02-11T13:26:37;9.07;;;8.17;;
7025;SDS011;3554;42.132;24.786;2023-02-11T13:29:12;8.43;;;7.63;;
7025;SDS011;3554;42.132;24.786;2023-02-11T13:31:51;8.97;;;7.63;;
7025;SDS011;3554;42.132;24.786;2023-02-11T13:34:22;9.37;;;8.13;;
7025;SDS011;3554;42.132;24.786;2023-02-11T13:36:53;12.30;;;8.57;;
7025;SDS011;3554;42.132;24.786;2023-02-11T13:39:22;12.77;;;8.33;;
7025;SDS011;3554;42.132;24.786;2023-02-11T13:41:49;10.33;;;8.53;;
7025;SDS011;3554;42.132;24.786;2023-02-11T13:44:28;8.90;;;8.00;;
7025;SDS011;3554;42.132;24.786;2023-02-11T13:46:59;12.17;;;9.27;;
7025;SDS011;3554;42.132;24.786;2023-02-11T13:49:30;10.90;;;7.97;;
7025;SDS011;3554;42.132;24.786;2023-02-11T13:52:00;8.23;;;7.43;;
7025;SDS011;3554;42.132;24.786;2023-02-11T13:54:31;12.07;;;9.23;;
7025;SDS011;3554;42.132;24.786;2023-02-11T13:59:54;11.10;;;8.07;;
7025;SDS011;3554;42.132;24.786;2023-02-11T14:02:26;13.93;;;8.20;;
7025;SDS011;3554;42.132;24.786;2023-02-11T14:05:23;10.20;;;8.80;;
7025;SDS011;3554;42.132;24.786;2023-02-11T14:08:13;9.47;;;8.47;;
7025;SDS011;3554;42.132;24.786;2023-02-11T14:14:19;9.63;;;8.63;;
7025;SDS011;3554;42.132;24.786;2023-02-11T14:20:00;10.77;;;8.17;;
7025;SDS011;3554;42.132;24.786;2023-02-11T14:22:29;13.83;;;8.17;;
7025;SDS011;3554;42.132;24.786;2023-02-11T14:25:14;11.80;;;9.07;;
7025;SDS011;3554;42.132;24.786;2023-02-11T14:27:46;12.03;;;9.60;;
7025;SDS011;3554;42.132;24.786;2023-02-11T14:30:28;12.07;;;9.20;;
7025;SDS011;3554;42.132;24.786;2023-02-11T14:33:11;11.07;;;8.57;;
7025;SDS011;3554;42.132;24.786;2023-02-11T14:35:50;8.83;;;7.90;;
7025;SDS011;3554;42.132;24.786;2023-02-11T14:38:29;9.70;;;8.40;;
7025;SDS011;3554;42.132;24.786;2023-02-11T14:41:06;16.67;;;8.73;;
7025;SDS011;3554;42.132;24.786;2023-02-11T14:43:45;16.50;;;10.13;;
7025;SDS011;3554;42.132;24.786;2023-02-11T14:46:17;11.67;;;9.60;;
7025;SDS011;3554;42.132;24.786;2023-02-11T14:48:47;12.77;;;10.33;;
7025;SDS011;3554;42.132;24.786;2023-02-11T14:51:18;11.60;;;9.60;;
7025;SDS011;3554;42.132;24.786;2023-02-11T14:53:48;12.60;;;9.03;;
7025;SDS011;3554;42.132;24.786;2023-02-11T14:56:17;19.13;;;9.33;;
7025;SDS011;3554;42.132;24.786;2023-02-11T14:58:45;15.73;;;10.37;;
7025;SDS011;3554;42.132;24.786;2023-02-11T15:01:23;11.37;;;9.80;;
7025;SDS011;3554;42.132;24.786;2023-02-11T15:03:54;12.73;;;9.37;;
7025;SDS011;3554;42.132;24.786;2023-02-11T15:06:23;15.83;;;9.77;;
7025;SDS011;3554;42.132;24.786;2023-02-11T15:08:53;14.40;;;10.40;;
7025;SDS011;3554;42.132;24.786;2023-02-11T15:11:25;18.23;;;9.83;;
7025;SDS011;3554;42.132;24.786;2023-02-11T15:13:53;13.77;;;9.50;;
7025;SDS011;3554;42.132;24.786;2023-02-11T15:16:23;10.47;;;8.73;;
7025;SDS011;3554;42.132;24.786;2023-02-11T15:18:53;10.67;;;8.17;;
7025;SDS011;3554;42.132;24.786;2023-02-11T15:21:24;10.27;;;8.77;;